Titsey, United Kingdom

12:54 PM GMT on January 24, 2017 (GMT +0000)
Biggin Hill | | Change Station

Elev 495 ft 51.31 °N, 0.03 °E | Updated 22 seconds ago

Clear
Clear
50.5 °F
Feels Like 50.5 °F
N
2.2
Wind Variable Wind from South
Gusts 5.4 mph

Today
High -- | Low -- °F
--% Chance of Precip.
Yesterday
High -- | Low -- °F
Precip. -- in
Pressure 30.36 in
Visibility 5.6 miles
Clouds Few 2200 ft
Dew Point 38 °F
Humidity 61%
Rainfall 0.00 in
Snow Depth Not available.
7:48 AM 4:36 PM
Waning Crescent, 12% visible
METAR EGKB 241220Z 28006KT 240V320 9000 FEW022 08/03 Q1028
Pressure 30.36 in
Visibility 5.6 miles
Clouds Few 2200 ft
Dew Point 38 °F
Humidity 61%
Rainfall 0.00 in
Snow Depth Not available.
7:48 AM 4:36 PM
Waning Crescent, 12% visible
METAR EGKB 241220Z 28006KT 240V320 9000 FEW022 08/03 Q1028

Get Your Daily Forecast Email!

Thanks for signing up!

Be on the lookout for a verification email in your inbox.

You'll start receiving the daily forecast at 8 AM.

×

10-Day Weather Forecast

×

Almanac

Astronomy

Jan. 24, 2017 Rise Set
Actual Time
Civil Twilight
Nautical Twilight
Astronomical Twilight
Moon
Length of Visible Light
Length of Day
Tomorrow will be .
, % of the Moon is Illuminated

Today's Extremes

Country Highs Country Lows

Community

WunderPhotos

Upload Photos

1,962,540 photos uploaded!

WunderBlog® & News

Nearby

Air Quality

  Air Quality AQ Index Pollutant
Not available.

Snow Depth

Station Depth Elevation

Earthquake Activity

City Distance Mag. Time & Date
Minimum magnitude displayed is 2.5.

Coastal Water Temperatures

Place Temperature

Stations

Nearby Weather Stations

Station Location Temp. Windchill Dew Point Humidity Wind Precip. Elev Updated Type